Groton, Vermont
Current Conditions -  °F | °C
As of 5:51 PM on Tuesday 25 Nov 2014 (Local Time) from KMPV Reporting Station
Clear Clear  
Wind Chill: 33°   Ceiling: Unl
Heat Index: 38°   Visibility: 10mi
Dew Point: 22°   Wind: 6mph
Humidity: 53%   Direction: 200°SSW
Pressure: 29.98"   Gusts: NA
Location:  44.21°N, 72.2°W
Report Text: KMPV 252251Z AUTO 20005KT 10SM CLR 03/M06 A2998 RMK AO2 SLP160 T00331056 $
Loading
Personal Weather Stations






























Interactive Weather Map New forecast layout! Learn more

10-Day Weather Forecast

Advertisements
Track Severe Weather on mobile